Time;durP1;ratioP1;P1;durP2;ratioP2;P2;SDS_P1;SDS_P2;PMS_P1;PMS_P2;Temp;Humidity;BMP_temperature;BMP_pressure;BME280_temperature;BME280_humidity;BME280_pressure;Samples;Min_cycle;Max_cycle;Signal;HPM_P1;HPM_P2
2023/05/29 04:00:48;;;;;;;4.63;1.20;;;15.80;1.00;;;;;;5828525;23;20913;-70
2023/05/29 04:03:16;;;;;;;0.80;0.40;;;15.60;1.00;;;;;;4955574;29;20446;-72
2023/05/29 04:05:44;;;;;;;0.70;0.50;;;15.60;1.00;;;;;;4956887;29;20865;-70
2023/05/29 04:08:13;;;;;;;0.70;0.20;;;15.60;1.00;;;;;;4956972;29;20475;-71
2023/05/29 04:10:43;;;;;;;0.87;0.20;;;15.50;1.00;;;;;;4950464;29;20439;-71
2023/05/29 04:13:11;;;;;;;0.60;0.10;;;;;;;;;;4937085;29;20443;-71
2023/05/29 04:15:39;;;;;;;1.27;0.67;;;;;;;;;;4937763;29;20446;-71
2023/05/29 04:18:09;;;;;;;0.73;0.43;;;15.50;1.00;;;;;;4936973;29;20532;-71
2023/05/29 04:20:37;;;;;;;2.53;0.57;;;15.40;1.00;;;;;;4937677;29;20468;-70
2023/05/29 04:23:04;;;;;;;0.60;0.20;;;15.30;1.00;;;;;;4937145;29;20451;-70
2023/05/29 04:25:34;;;;;;;0.60;0.20;;;15.40;1.00;;;;;;4937235;29;20466;-70
2023/05/29 04:28:03;;;;;;;0.60;0.20;;;;;;;;;;4937078;29;20529;-71
2023/05/29 04:30:33;;;;;;;1.57;0.60;;;15.40;1.00;;;;;;4934868;29;20469;-72
2023/05/29 04:33:01;;;;;;;6.00;3.53;;;15.40;1.00;;;;;;4932406;29;20463;-71
2023/05/29 04:35:30;;;;;;;0.90;0.50;;;15.30;1.00;;;;;;4936950;29;20543;-71
2023/05/29 04:37:58;;;;;;;3.53;2.23;;;15.30;1.00;;;;;;4937042;29;20484;-70
2023/05/29 04:40:26;;;;;;;1.43;0.40;;;15.30;1.00;;;;;;4937210;29;20440;-70
2023/05/29 04:42:54;;;;;;;0.60;0.20;;;15.30;2.40;;;;;;4936966;29;20458;-71
2023/05/29 04:45:23;;;;;;;1.23;0.87;;;15.40;2.70;;;;;;4937101;29;20561;-71
2023/05/29 04:47:53;;;;;;;1.43;0.50;;;15.40;3.90;;;;;;4936807;29;20454;-71
2023/05/29 04:50:22;;;;;;;3.07;0.83;;;15.30;4.60;;;;;;4937031;29;20447;-71
2023/05/29 04:52:52;;;;;;;0.93;0.93;;;15.30;5.90;;;;;;4936421;29;20473;-71
2023/05/29 04:55:20;;;;;;;1.40;1.30;;;;;;;;;;4936829;29;20447;-71
2023/05/29 04:57:48;;;;;;;0.60;0.20;;;15.30;8.70;;;;;;4936504;29;20475;-72
2023/05/29 05:00:17;;;;;;;1.33;0.60;;;15.30;9.50;;;;;;4936820;29;20533;-71
2023/05/29 05:02:46;;;;;;;3.23;1.07;;;15.20;10.70;;;;;;4936154;29;20931;-70
2023/05/29 05:05:14;;;;;;;1.30;0.20;;;15.10;13.20;;;;;;4935932;29;20966;-70
2023/05/29 05:07:42;;;;;;;0.67;0.27;;;15.20;14.00;;;;;;4936560;29;20484;-71
2023/05/29 05:10:12;;;;;;;0.80;0.50;;;15.20;15.00;;;;;;4936172;29;20544;-70
2023/05/29 05:12:40;;;;;;;0.60;0.10;;;15.20;16.20;;;;;;4935961;29;20480;-70
2023/05/29 05:15:09;;;;;;;0.60;0.20;;;15.30;16.00;;;;;;4936388;29;20489;-71
2023/05/29 05:17:37;;;;;;;0.60;0.20;;;15.40;15.80;;;;;;4936096;29;21029;-71
2023/05/29 05:20:08;;;;;;;0.60;0.17;;;15.40;16.90;;;;;;4936116;29;20543;-70
2023/05/29 05:22:36;;;;;;;0.70;0.40;;;15.40;16.90;;;;;;4935700;29;20475;-70
2023/05/29 05:25:04;;;;;;;0.70;0.40;;;15.50;17.50;;;;;;4936192;29;20455;-71
2023/05/29 05:27:34;;;;;;;0.60;0.20;;;15.60;17.50;;;;;;4936127;29;20977;-71
2023/05/29 05:30:03;;;;;;;0.70;0.50;;;15.60;16.40;;;;;;4936482;29;20833;-72
2023/05/29 05:32:30;;;;;;;0.60;0.13;;;15.60;17.10;;;;;;4936029;29;20558;-72
2023/05/29 05:34:58;;;;;;;0.60;0.10;;;15.70;17.10;;;;;;4936572;29;20515;-71
2023/05/29 05:37:26;;;;;;;0.70;0.30;;;15.80;17.90;;;;;;4935736;29;20533;-71
2023/05/29 05:39:54;;;;;;;1.70;1.60;;;15.80;16.00;;;;;;4935890;29;20487;-71
2023/05/29 05:42:22;;;;;;;0.70;0.40;;;15.80;16.90;;;;;;4935362;29;20484;-71
2023/05/29 05:44:51;;;;;;;0.90;0.50;;;15.80;16.30;;;;;;4935425;29;20454;-71
2023/05/29 05:47:19;;;;;;;0.80;0.30;;;15.90;17.40;;;;;;4934979;29;20476;-71
2023/05/29 05:49:46;;;;;;;0.60;0.20;;;16.00;17.30;;;;;;4935208;29;20546;-71
2023/05/29 05:52:15;;;;;;;0.60;0.10;;;16.10;16.30;;;;;;4935686;29;20886;-69
2023/05/29 05:54:43;;;;;;;0.60;0.20;;;16.00;14.80;;;;;;4935830;29;20451;-70
2023/05/29 05:57:12;;;;;;;0.60;0.13;;;16.10;14.40;;;;;;4935928;29;20538;-72
2023/05/29 05:59:40;;;;;;;0.60;0.10;;;16.10;15.90;;;;;;4936004;29;20533;-71
2023/05/29 06:02:09;;;;;;;1.30;0.30;;;16.20;15.30;;;;;;4936924;29;20561;-71
2023/05/29 06:04:37;;;;;;;1.13;1.03;;;16.30;12.50;;;;;;4939327;29;20974;-71
2023/05/29 06:07:06;;;;;;;0.60;0.20;;;16.50;12.80;;;;;;4937899;29;20483;-70
2023/05/29 06:09:34;;;;;;;2.63;2.43;;;16.50;10.60;;;;;;4939474;29;20454;-70
2023/05/29 06:12:01;;;;;;;3.73;1.33;;;16.50;8.20;;;;;;4935528;29;20482;-71
2023/05/29 06:14:29;;;;;;;0.60;0.10;;;16.50;9.50;;;;;;4935059;29;20489;-72
2023/05/29 06:16:58;;;;;;;1.70;1.07;;;16.50;8.30;;;;;;4935245;29;20451;-70
2023/05/29 06:19:27;;;;;;;0.60;0.30;;;16.40;8.90;;;;;;4934953;29;20967;-71
2023/05/29 06:21:55;;;;;;;0.60;0.10;;;16.50;9.60;;;;;;4935066;29;20510;-71
2023/05/29 06:24:23;;;;;;;0.60;0.10;;;16.50;9.80;;;;;;4935035;29;20532;-72
2023/05/29 06:26:51;;;;;;;1.07;0.90;;;16.60;10.90;;;;;;4935191;29;20453;-71
2023/05/29 06:29:18;;;;;;;0.60;0.10;;;16.70;10.30;;;;;;4935172;29;20447;-71
2023/05/29 06:31:47;;;;;;;0.60;0.30;;;;;;;;;;4934700;29;20511;-71
2023/05/29 06:34:15;;;;;;;0.60;0.30;;;16.80;8.20;;;;;;4934784;29;20448;-71
2023/05/29 06:36:44;;;;;;;0.60;0.20;;;16.80;6.10;;;;;;4935473;29;20451;-71
2023/05/29 06:39:12;;;;;;;1.90;0.97;;;16.80;5.20;;;;;;4942993;29;20482;-73
2023/05/29 06:41:40;;;;;;;0.60;0.10;;;16.90;3.70;;;;;;4944745;29;20488;-71
2023/05/29 06:44:09;;;;;;;0.80;0.40;;;16.90;4.10;;;;;;4942703;29;20539;-70
2023/05/29 06:46:37;;;;;;;0.60;0.23;;;17.00;3.50;;;;;;4941337;29;20443;-70
2023/05/29 06:49:05;;;;;;;0.60;0.20;;;17.00;3.10;;;;;;4943549;29;20456;-71
2023/05/29 06:51:35;;;;;;;2.70;1.20;;;17.10;1.70;;;;;;4941996;29;20922;-72
2023/05/29 06:54:04;;;;;;;0.60;0.20;;;17.10;1.50;;;;;;4944294;29;20450;-71
2023/05/29 06:56:32;;;;;;;0.60;0.20;;;17.20;1.80;;;;;;4943160;29;20901;-70
2023/05/29 06:58:59;;;;;;;0.60;0.10;;;17.20;2.80;;;;;;4944403;29;20486;-71
2023/05/29 07:01:27;;;;;;;0.60;0.13;;;17.30;2.60;;;;;;4942956;28;20501;-71
2023/05/29 07:03:56;;;;;;;0.60;0.10;;;17.50;2.90;;;;;;4940147;28;20453;-71
2023/05/29 07:06:23;;;;;;;0.60;0.10;;;17.60;3.40;;;;;;4943994;29;20467;-71
2023/05/29 07:08:51;;;;;;;0.60;0.10;;;17.70;1.70;;;;;;4945460;28;20443;-72
2023/05/29 07:11:21;;;;;;;0.60;0.13;;;17.80;1.70;;;;;;4944748;28;20855;-71
2023/05/29 07:13:48;;;;;;;0.60;0.10;;;17.90;1.00;;;;;;4949623;28;20454;-71
2023/05/29 07:16:18;;;;;;;0.70;0.30;;;17.80;1.00;;;;;;4934496;29;20457;-71
2023/05/29 07:18:52;;;;;;;9.50;1.07;;;17.70;1.00;;;;;;4935339;29;20537;-72
2023/05/29 07:21:20;;;;;;;0.60;0.20;;;17.70;1.00;;;;;;4933520;29;20525;-71
2023/05/29 07:23:48;;;;;;;0.60;0.20;;;17.80;1.00;;;;;;4937875;29;20463;-71
2023/05/29 07:26:16;;;;;;;0.60;0.10;;;17.80;1.00;;;;;;4941721;28;20516;-71
2023/05/29 07:28:45;;;;;;;0.60;0.10;;;17.90;1.00;;;;;;4944586;28;20977;-72
2023/05/29 07:31:13;;;;;;;0.60;0.17;;;18.00;1.00;;;;;;4948850;28;20837;-72
2023/05/29 07:33:41;;;;;;;1.53;0.83;;;18.10;1.00;;;;;;4944409;29;20447;-72
2023/05/29 07:36:09;;;;;;;1.37;1.07;;;18.20;1.00;;;;;;4946371;28;20451;-72
2023/05/29 07:38:37;;;;;;;0.60;0.10;;;18.20;1.00;;;;;;4947382;28;20874;-72
2023/05/29 07:41:05;;;;;;;0.60;0.20;;;18.30;1.00;;;;;;4947962;29;20497;-72
2023/05/29 07:43:33;;;;;;;0.60;0.17;;;18.40;1.00;;;;;;4948302;29;20928;-71
2023/05/29 07:46:02;;;;;;;0.60;0.10;;;18.50;1.00;;;;;;4945376;29;20526;-72
2023/05/29 07:48:30;;;;;;;0.60;0.20;;;18.50;1.00;;;;;;4948230;29;20479;-72
2023/05/29 07:50:59;;;;;;;0.60;0.10;;;18.60;1.00;;;;;;4954351;28;20494;-71
2023/05/29 07:53:26;;;;;;;0.60;0.10;;;18.70;1.00;;;;;;4959448;29;20474;-72
2023/05/29 07:55:54;;;;;;;0.60;0.10;;;18.80;1.00;;;;;;4951152;28;20538;-70
2023/05/29 07:58:22;;;;;;;0.60;0.20;;;18.80;1.00;;;;;;4939890;29;20479;-71
2023/05/29 08:00:50;;;;;;;2.10;0.40;;;18.90;1.00;;;;;;4938978;29;20587;-70
2023/05/29 08:03:20;;;;;;;0.90;0.57;;;19.00;1.00;;;;;;4939270;29;20494;-71
2023/05/29 08:05:49;;;;;;;0.60;0.20;;;19.00;1.00;;;;;;4939451;29;20503;-71
2023/05/29 08:08:17;;;;;;;0.60;0.20;;;19.10;1.00;;;;;;4939427;29;20444;-72
2023/05/29 08:10:46;;;;;;;0.80;0.20;;;19.10;1.00;;;;;;4950566;29;20443;-71
2023/05/29 08:13:13;;;;;;;0.60;0.20;;;19.10;1.00;;;;;;4931582;29;20463;-70
2023/05/29 08:15:41;;;;;;;0.60;0.13;;;19.20;1.00;;;;;;4936242;29;20464;-71
2023/05/29 08:18:09;;;;;;;0.60;0.20;;;19.20;1.00;;;;;;4936942;29;20895;-73
2023/05/29 08:20:38;;;;;;;3.63;1.13;;;19.30;1.00;;;;;;4936630;29;20483;-72
2023/05/29 08:23:06;;;;;;;0.90;0.60;;;19.40;1.00;;;;;;4935989;29;20444;-71
2023/05/29 08:25:34;;;;;;;1.90;1.80;;;19.50;1.00;;;;;;4937262;29;20450;-70
2023/05/29 08:28:02;;;;;;;0.67;0.20;;;19.50;1.00;;;;;;4936564;29;20446;-71
2023/05/29 08:30:30;;;;;;;0.90;0.53;;;19.50;1.00;;;;;;4936291;29;20543;-71
2023/05/29 08:32:58;;;;;;;1.20;0.70;;;19.50;1.00;;;;;;4937136;29;20498;-73
2023/05/29 08:35:26;;;;;;;0.70;0.40;;;19.50;1.00;;;;;;4922835;29;20955;-72
2023/05/29 08:37:55;;;;;;;0.60;0.20;;;19.50;1.00;;;;;;4945419;29;20948;-70
2023/05/29 08:40:23;;;;;;;4.93;2.20;;;19.60;1.00;;;;;;4944878;28;20475;-71
2023/05/29 08:42:57;;;;;;;0.60;0.10;;;19.60;1.00;;;;;;4935272;29;20544;-71
2023/05/29 08:45:26;;;;;;;0.60;0.17;;;19.70;1.00;;;;;;4945690;28;20536;-71
2023/05/29 08:47:54;;;;;;;0.60;0.20;;;19.90;1.00;;;;;;4936464;29;20540;-71
2023/05/29 08:50:23;;;;;;;0.70;0.30;;;;;;;;;;4936377;29;20480;-71
2023/05/29 08:52:52;;;;;;;0.60;0.20;;;20.00;1.00;;;;;;4936513;29;20499;-72
2023/05/29 08:55:21;;;;;;;0.60;0.10;;;20.10;1.00;;;;;;4933965;29;20496;-71
2023/05/29 08:57:50;;;;;;;0.60;0.20;;;20.20;1.00;;;;;;4930366;29;20563;-70
2023/05/29 09:00:20;;;;;;;0.60;0.20;;;20.20;1.00;;;;;;4935819;29;20507;-70
2023/05/29 09:02:49;;;;;;;0.60;0.20;;;20.20;1.00;;;;;;4933236;29;20483;-71
2023/05/29 09:05:17;;;;;;;0.90;0.40;;;20.30;1.00;;;;;;4933000;29;20448;-71
2023/05/29 09:07:46;;;;;;;1.07;0.97;;;20.40;1.00;;;;;;4935662;29;20456;-72
2023/05/29 09:10:15;;;;;;;1.30;0.53;;;20.50;1.00;;;;;;4936304;29;20444;-71
2023/05/29 09:12:44;;;;;;;0.60;0.10;;;20.50;1.00;;;;;;4920530;29;20487;-71
2023/05/29 09:15:19;;;;;;;0.60;0.10;;;20.60;1.00;;;;;;4936105;29;20538;-70
2023/05/29 09:17:51;;;;;;;0.90;0.50;;;20.60;1.00;;;;;;4936215;29;20534;-72
2023/05/29 09:20:22;;;;;;;0.60;0.10;;;20.60;1.00;;;;;;4936675;29;20485;-70
2023/05/29 09:22:55;;;;;;;0.60;0.20;;;;;;;;;;4934443;29;20468;-70
2023/05/29 09:25:23;;;;;;;0.60;0.10;;;20.70;1.00;;;;;;4935021;29;20462;-71
2023/05/29 09:27:55;;;;;;;0.60;0.10;;;20.80;1.00;;;;;;4934822;29;20484;-74
2023/05/29 09:30:37;;;;;;;0.60;0.20;;;20.90;1.00;;;;;;4934846;29;20449;-74
2023/05/29 09:33:06;;;;;;;0.60;0.20;;;21.00;1.00;;;;;;4935211;29;20458;-71
2023/05/29 09:35:35;;;;;;;0.70;0.33;;;;;;;;;;4936539;29;20454;-72
2023/05/29 09:38:04;;;;;;;0.63;0.23;;;21.20;1.00;;;;;;4934601;29;20595;-72
2023/05/29 09:40:33;;;;;;;0.60;0.20;;;21.30;1.00;;;;;;4936085;29;20519;-73
2023/05/29 09:43:07;;;;;;;0.60;0.27;;;21.40;1.00;;;;;;4935657;29;20457;-72
2023/05/29 09:45:39;;;;;;;0.80;0.20;;;21.60;1.00;;;;;;4936504;29;20487;-70
2023/05/29 09:48:08;;;;;;;0.70;0.60;;;21.60;1.00;;;;;;4936203;29;21018;-73
2023/05/29 09:50:37;;;;;;;0.60;0.30;;;21.70;1.00;;;;;;4936179;29;20552;-72
2023/05/29 09:53:06;;;;;;;0.80;0.40;;;;;;;;;;4918450;29;20449;-73
2023/05/29 09:55:36;;;;;;;0.60;0.10;;;21.80;1.00;;;;;;4922989;29;20485;-74
2023/05/29 09:58:07;;;;;;;0.60;0.20;;;21.90;1.00;;;;;;4938958;29;20441;-72
2023/05/29 10:00:36;;;;;;;8.13;2.60;;;;;;;;;;4939879;29;20520;-73
2023/05/29 10:03:04;;;;;;;0.70;0.30;;;22.00;1.00;;;;;;4939608;29;20461;-73
2023/05/29 10:05:33;;;;;;;0.60;0.10;;;;;;;;;;4937033;29;20457;-74
2023/05/29 10:08:03;;;;;;;0.77;0.40;;;22.10;1.00;;;;;;4936693;29;20961;-71
2023/05/29 10:10:31;;;;;;;0.60;0.10;;;22.10;1.00;;;;;;4936603;29;20474;-73
2023/05/29 10:13:02;;;;;;;0.70;0.17;;;22.20;1.00;;;;;;4935383;29;20492;-73
2023/05/29 10:15:32;;;;;;;2.90;1.63;;;;;;;;;;4970089;23;20518;-73
2023/05/29 10:18:04;;;;;;;0.70;0.20;;;22.30;1.00;;;;;;4944524;29;20811;-74
2023/05/29 10:20:35;;;;;;;1.00;0.70;;;22.30;1.00;;;;;;4956126;29;20475;-73
2023/05/29 10:23:05;;;;;;;0.70;0.30;;;22.40;1.00;;;;;;4954043;28;20460;-73
2023/05/29 10:25:34;;;;;;;0.90;0.57;;;22.50;1.00;;;;;;4939992;29;20561;-73
2023/05/29 10:28:03;;;;;;;0.70;0.10;;;22.50;1.00;;;;;;4936788;29;20483;-75
2023/05/29 10:30:40;;;;;;;0.80;0.40;;;22.60;1.00;;;;;;4937278;29;20460;-77
2023/05/29 10:33:16;;;;;;;0.70;0.40;;;;;;;;;;4936036;29;20468;-76
2023/05/29 10:35:54;;;;;;;6.83;1.33;;;22.70;1.00;;;;;;4936779;29;20472;-74
2023/05/29 10:38:22;;;;;;;0.70;0.33;;;22.50;1.00;;;;;;4932333;29;20538;-76
2023/05/29 10:40:50;;;;;;;0.67;0.17;;;22.50;1.00;;;;;;4938341;29;20485;-74
2023/05/29 10:43:31;;;;;;;0.70;0.10;;;22.50;1.00;;;;;;4936345;29;20481;-75
2023/05/29 10:46:02;;;;;;;0.70;0.20;;;22.50;1.00;;;;;;4937395;29;20474;-74
2023/05/29 10:48:51;;;;;;;1.13;0.50;;;22.70;1.00;;;;;;4936806;29;20464;-74
2023/05/29 10:51:27;;;;;;;0.70;0.20;;;22.80;1.00;;;;;;4931917;29;20454;-74
2023/05/29 10:53:55;;;;;;;0.70;0.30;;;22.90;1.00;;;;;;4935968;29;20450;-75
2023/05/29 10:56:28;;;;;;;0.70;0.20;;;22.90;1.00;;;;;;4936211;29;20461;-74
2023/05/29 10:59:00;;;;;;;1.27;1.17;;;22.90;1.00;;;;;;4935309;29;20839;-75
2023/05/29 11:01:31;;;;;;;3.33;0.90;;;22.90;1.00;;;;;;4936418;29;20477;-74
2023/05/29 11:04:28;;;;;;;0.70;0.30;;;23.10;1.00;;;;;;4939177;29;21021;-74
2023/05/29 11:06:56;;;;;;;0.70;0.20;;;;;;;;;;4941084;29;20466;-74
2023/05/29 11:09:30;;;;;;;2.30;2.00;;;23.20;1.00;;;;;;4938151;29;20441;-76
2023/05/29 11:12:35;;;;;;;1.20;0.67;;;23.30;1.00;;;;;;4945551;29;20533;-74
2023/05/29 11:15:06;;;;;;;0.70;0.20;;;23.40;1.00;;;;;;4942462;29;20478;-75
2023/05/29 11:17:45;;;;;;;0.80;0.40;;;23.40;1.00;;;;;;4938552;29;20446;-74
2023/05/29 11:20:26;;;;;;;0.80;0.40;;;23.40;1.00;;;;;;4937847;28;20640;-73
2023/05/29 11:23:03;;;;;;;0.70;0.20;;;23.40;1.00;;;;;;4937334;29;20562;-76
2023/05/29 11:25:35;;;;;;;0.70;0.20;;;23.50;1.00;;;;;;4937504;29;20469;-74
2023/05/29 11:28:07;;;;;;;0.70;0.20;;;23.70;1.00;;;;;;4936589;29;20931;-72
2023/05/29 11:30:46;;;;;;;0.70;0.30;;;23.60;1.00;;;;;;4933691;29;20470;-74
2023/05/29 11:33:24;;;;;;;0.70;0.20;;;23.70;1.00;;;;;;4932570;29;20890;-75
2023/05/29 11:36:01;;;;;;;0.70;0.20;;;23.80;1.00;;;;;;4934037;29;20557;-74
2023/05/29 11:38:30;;;;;;;0.70;0.20;;;;;;;;;;4939158;29;20462;-75
2023/05/29 11:41:03;;;;;;;0.70;0.20;;;23.90;1.00;;;;;;4938919;29;20469;-74
2023/05/29 11:43:31;;;;;;;0.70;0.13;;;23.90;1.00;;;;;;4938958;29;20549;-74
2023/05/29 11:45:59;;;;;;;2.20;1.60;;;23.90;1.00;;;;;;4940176;29;20526;-72
2023/05/29 11:48:28;;;;;;;0.70;0.20;;;23.90;1.00;;;;;;4939609;29;20459;-74
2023/05/29 11:50:56;;;;;;;0.70;0.20;;;24.00;1.00;;;;;;4938273;29;20458;-74
2023/05/29 11:53:26;;;;;;;0.70;0.17;;;24.00;1.00;;;;;;4938986;29;20828;-74
2023/05/29 11:55:54;;;;;;;0.70;0.20;;;24.00;1.00;;;;;;4939302;29;20567;-75
2023/05/29 11:58:22;;;;;;;0.87;0.40;;;23.90;1.00;;;;;;4938260;29;20465;-74
2023/05/29 12:00:51;;;;;;;0.70;0.10;;;23.90;1.00;;;;;;4938428;29;20534;-73
2023/05/29 12:03:20;;;;;;;0.70;0.13;;;;;;;;;;4920533;29;20497;-74
2023/05/29 12:05:52;;;;;;;0.70;0.10;;;24.10;1.00;;;;;;4927463;29;20471;-75
2023/05/29 12:08:23;;;;;;;0.90;0.67;;;24.20;1.00;;;;;;4933879;29;20482;-74
2023/05/29 12:10:52;;;;;;;0.70;0.20;;;;;;;;;;4943081;29;20506;-75
2023/05/29 12:13:21;;;;;;;0.90;0.53;;;24.30;1.00;;;;;;4939436;29;20923;-73
2023/05/29 12:15:53;;;;;;;1.10;0.87;;;24.30;1.00;;;;;;4940260;29;21001;-75
2023/05/29 12:18:22;;;;;;;0.70;0.20;;;24.10;1.00;;;;;;4939268;29;20493;-75
2023/05/29 12:20:51;;;;;;;1.70;0.77;;;24.40;1.00;;;;;;4938973;29;20467;-73
2023/05/29 12:23:22;;;;;;;0.70;0.10;;;24.40;1.00;;;;;;4936915;29;20513;-75
2023/05/29 12:25:52;;;;;;;0.80;0.43;;;24.50;1.00;;;;;;4938460;29;20470;-76
2023/05/29 12:28:21;;;;;;;9.57;2.57;;;24.60;1.00;;;;;;4937890;29;20863;-76
2023/05/29 12:30:50;;;;;;;0.70;0.63;;;24.60;1.00;;;;;;4937983;29;20458;-75
2023/05/29 12:33:30;;;;;;;0.80;0.30;;;24.50;1.00;;;;;;4937821;29;20968;-75
2023/05/29 12:36:08;;;;;;;1.00;0.67;;;24.60;1.00;;;;;;4938012;29;20937;-74
2023/05/29 12:38:47;;;;;;;0.70;0.20;;;24.70;1.00;;;;;;4941098;29;20538;-75
2023/05/29 12:41:28;;;;;;;0.70;0.20;;;24.80;1.00;;;;;;4944510;29;20794;-74
2023/05/29 12:43:57;;;;;;;0.70;0.30;;;;;;;;;;4943923;29;20500;-74
2023/05/29 12:46:26;;;;;;;0.80;0.30;;;;;;;;;;4942208;29;20468;-74
2023/05/29 12:48:56;;;;;;;1.40;0.43;;;24.70;1.00;;;;;;4940906;29;20485;-74
2023/05/29 12:51:25;;;;;;;0.70;0.10;;;24.70;1.00;;;;;;4937884;29;20955;-72
2023/05/29 12:53:54;;;;;;;0.90;0.53;;;24.70;1.00;;;;;;4938621;29;20854;-73
2023/05/29 12:56:23;;;;;;;0.70;0.20;;;24.70;1.00;;;;;;4937815;29;20541;-73
2023/05/29 12:58:52;;;;;;;0.70;0.20;;;24.70;1.00;;;;;;4937950;29;20529;-74
2023/05/29 13:01:20;;;;;;;0.70;0.20;;;24.90;1.00;;;;;;4938015;29;20494;-73
2023/05/29 13:03:50;;;;;;;0.90;0.50;;;24.90;1.00;;;;;;4937416;29;20483;-75
2023/05/29 13:06:18;;;;;;;0.90;0.70;;;24.90;1.00;;;;;;4938224;29;20854;-74
2023/05/29 13:08:47;;;;;;;0.87;0.60;;;24.90;1.00;;;;;;4938259;29;20489;-74
2023/05/29 13:11:15;;;;;;;0.80;0.20;;;24.90;1.00;;;;;;4951213;29;20447;-75
2023/05/29 13:13:43;;;;;;;1.77;0.60;;;25.00;1.00;;;;;;4954299;29;20549;-74
2023/05/29 13:16:11;;;;;;;0.70;0.20;;;25.00;1.00;;;;;;4938525;29;20846;-75
2023/05/29 13:18:39;;;;;;;0.80;0.57;;;25.00;1.00;;;;;;4938028;29;20452;-77
2023/05/29 13:21:07;;;;;;;0.70;0.30;;;25.10;1.00;;;;;;4936650;29;20543;-77
2023/05/29 13:23:35;;;;;;;0.70;0.20;;;25.10;1.00;;;;;;4936015;29;20486;-77
2023/05/29 13:26:06;;;;;;;0.70;0.30;;;25.10;1.00;;;;;;4936427;29;20543;-77
2023/05/29 13:28:34;;;;;;;0.70;0.20;;;25.20;1.00;;;;;;4937720;29;20950;-78
2023/05/29 13:31:02;;;;;;;0.70;0.20;;;25.30;1.00;;;;;;4937758;29;20773;-77
2023/05/29 13:33:33;;;;;;;1.00;0.63;;;25.30;1.00;;;;;;4937463;29;20493;-76
2023/05/29 13:36:01;;;;;;;0.70;0.20;;;25.50;1.00;;;;;;4936874;29;20467;-78
2023/05/29 13:38:29;;;;;;;1.57;0.63;;;25.70;1.00;;;;;;4937109;29;20471;-78
2023/05/29 13:40:57;;;;;;;1.77;1.60;;;25.60;1.00;;;;;;4937011;29;20542;-76
2023/05/29 13:43:26;;;;;;;1.10;0.97;;;25.50;1.00;;;;;;4937162;29;20546;-78
2023/05/29 13:46:10;;;;;;;0.70;0.13;;;25.40;1.00;;;;;;4934621;29;20487;-76
2023/05/29 13:48:38;;;;;;;0.70;0.17;;;25.50;1.00;;;;;;4937248;29;20538;-76
2023/05/29 13:51:06;;;;;;;2.17;0.93;;;25.50;1.00;;;;;;4936838;29;20451;-77
2023/05/29 13:53:34;;;;;;;0.70;0.10;;;25.50;1.00;;;;;;4954461;28;20464;-78
2023/05/29 13:56:02;;;;;;;0.70;0.10;;;25.50;1.00;;;;;;4936597;29;20476;-76
2023/05/29 13:58:31;;;;;;;1.10;1.00;;;25.40;1.00;;;;;;4937537;29;20934;-78
2023/05/29 14:00:59;;;;;;;0.70;0.20;;;25.40;1.00;;;;;;4937369;29;20467;-77
2023/05/29 14:03:28;;;;;;;1.67;0.60;;;25.40;1.00;;;;;;4936613;29;20489;-78
2023/05/29 14:05:57;;;;;;;1.20;0.50;;;25.60;1.00;;;;;;4936504;29;20475;-77
2023/05/29 14:08:25;;;;;;;1.50;1.40;;;25.50;1.00;;;;;;4935907;29;20455;-79
2023/05/29 14:10:53;;;;;;;0.80;0.30;;;25.50;1.00;;;;;;4936624;29;20462;-79
2023/05/29 14:13:21;;;;;;;0.70;0.20;;;25.50;1.00;;;;;;4936366;29;20479;-79
2023/05/29 14:15:50;;;;;;;0.70;0.23;;;25.50;1.00;;;;;;4936225;29;20475;-78
2023/05/29 14:18:18;;;;;;;0.70;0.20;;;25.60;1.00;;;;;;4936482;29;20459;-77
2023/05/29 14:20:48;;;;;;;0.70;0.30;;;25.60;1.00;;;;;;4935556;29;20458;-77
2023/05/29 14:23:18;;;;;;;0.70;0.10;;;;;;;;;;4934607;29;20487;-77
2023/05/29 14:25:46;;;;;;;0.70;0.20;;;;;;;;;;4934510;29;20475;-76
2023/05/29 14:28:14;;;;;;;0.80;0.40;;;25.70;1.00;;;;;;4933332;29;20455;-77
2023/05/29 14:30:42;;;;;;;0.70;0.20;;;25.70;1.00;;;;;;4933952;29;20555;-77
2023/05/29 14:33:11;;;;;;;1.00;0.53;;;25.70;1.00;;;;;;4933703;29;20475;-79
2023/05/29 14:35:39;;;;;;;0.70;0.20;;;25.60;1.00;;;;;;4934316;29;20479;-77
2023/05/29 14:38:08;;;;;;;0.73;0.40;;;;;;;;;;4936100;29;20511;-77
2023/05/29 14:40:37;;;;;;;2.70;1.30;;;25.60;1.00;;;;;;4937630;29;20455;-77
2023/05/29 14:43:05;;;;;;;1.03;0.50;;;25.60;1.00;;;;;;4937608;29;20489;-79
2023/05/29 14:45:33;;;;;;;1.77;1.50;;;25.60;1.00;;;;;;4932362;29;20518;-78
2023/05/29 14:48:01;;;;;;;1.43;1.23;;;25.60;1.00;;;;;;4935157;29;20482;-78
2023/05/29 14:50:31;;;;;;;0.70;0.20;;;25.70;1.00;;;;;;4934795;29;20454;-78
2023/05/29 14:52:59;;;;;;;0.70;0.20;;;;;;;;;;4936178;29;20470;-78
2023/05/29 14:55:27;;;;;;;1.10;0.53;;;25.60;1.00;;;;;;4939188;29;20506;-77
2023/05/29 14:57:55;;;;;;;0.70;0.20;;;25.60;1.00;;;;;;4942332;29;20535;-77
2023/05/29 15:00:22;;;;;;;0.70;0.10;;;25.60;1.00;;;;;;4943505;29;20804;-77
2023/05/29 15:02:50;;;;;;;0.70;0.40;;;25.70;1.00;;;;;;4943845;29;20451;-78
2023/05/29 15:05:19;;;;;;;0.90;0.27;;;;;;;;;;4942996;29;20469;-76
2023/05/29 15:07:48;;;;;;;0.70;0.20;;;25.90;1.00;;;;;;4938927;29;20939;-77
2023/05/29 15:10:20;;;;;;;0.90;0.47;;;26.00;1.00;;;;;;4939202;29;20960;-77
2023/05/29 15:12:48;;;;;;;0.70;0.20;;;26.00;1.00;;;;;;4937351;29;20448;-78
2023/05/29 15:15:16;;;;;;;0.70;0.20;;;25.90;1.00;;;;;;4936268;29;20516;-77
2023/05/29 15:17:46;;;;;;;0.70;0.20;;;26.10;1.00;;;;;;4938484;29;20466;-77
2023/05/29 15:20:14;;;;;;;0.70;0.10;;;26.10;1.00;;;;;;4939078;29;20440;-77
2023/05/29 15:22:42;;;;;;;0.90;0.53;;;26.20;1.00;;;;;;4922191;29;20507;-76
2023/05/29 15:25:11;;;;;;;2.13;1.37;;;26.30;1.00;;;;;;4920737;29;20567;-78
2023/05/29 15:27:39;;;;;;;0.70;0.20;;;26.30;1.00;;;;;;4937178;29;20538;-77
2023/05/29 15:30:11;;;;;;;1.50;0.63;;;26.20;1.00;;;;;;4937664;29;20523;-77
2023/05/29 15:32:40;;;;;;;0.90;0.80;;;26.20;1.00;;;;;;4940110;29;20548;-78
2023/05/29 15:35:09;;;;;;;0.70;0.20;;;26.40;1.00;;;;;;4941108;29;20507;-77
2023/05/29 15:37:37;;;;;;;1.27;1.17;;;26.40;1.00;;;;;;4944834;29;20460;-79
2023/05/29 15:40:07;;;;;;;0.70;0.10;;;26.50;1.00;;;;;;4955782;29;20515;-79
2023/05/29 15:42:37;;;;;;;0.90;0.30;;;26.50;1.00;;;;;;4957275;29;20443;-78
2023/05/29 15:45:05;;;;;;;0.87;0.27;;;26.50;1.00;;;;;;4944879;29;20493;-79
2023/05/29 15:47:33;;;;;;;0.70;0.13;;;26.50;1.00;;;;;;4939099;29;20542;-77
2023/05/29 15:50:02;;;;;;;0.70;0.20;;;26.50;1.00;;;;;;4940877;29;20966;-77
2023/05/29 15:52:30;;;;;;;0.70;0.10;;;26.50;1.00;;;;;;4941420;29;20447;-78
2023/05/29 15:55:13;;;;;;;0.90;0.60;;;26.40;1.00;;;;;;4940850;29;20494;-78
2023/05/29 15:57:43;;;;;;;0.70;0.20;;;26.50;1.00;;;;;;4941231;29;20462;-79
2023/05/29 16:00:12;;;;;;;2.20;0.80;;;26.50;1.00;;;;;;4940196;29;20462;-79
2023/05/29 16:02:40;;;;;;;1.30;1.13;;;26.50;1.00;;;;;;4940806;29;20534;-78
2023/05/29 16:05:08;;;;;;;0.70;0.20;;;26.50;1.00;;;;;;4941203;29;20996;-77
2023/05/29 16:07:37;;;;;;;0.80;0.63;;;26.40;1.00;;;;;;4941427;29;20879;-76
2023/05/29 16:10:05;;;;;;;2.07;1.60;;;26.40;1.00;;;;;;4941406;29;20684;-77
2023/05/29 16:12:34;;;;;;;0.70;0.10;;;26.40;1.00;;;;;;4940577;29;20455;-78
2023/05/29 16:15:04;;;;;;;0.80;0.30;;;26.40;1.00;;;;;;4941037;29;20479;-77
2023/05/29 16:17:32;;;;;;;0.70;0.20;;;26.40;1.00;;;;;;4942024;29;20547;-76
2023/05/29 16:20:00;;;;;;;0.70;0.23;;;26.40;1.00;;;;;;4940670;29;20538;-76
2023/05/29 16:22:31;;;;;;;0.70;0.30;;;26.50;1.00;;;;;;4939747;29;20451;-77
2023/05/29 16:25:09;;;;;;;0.70;0.30;;;26.50;1.00;;;;;;4939532;29;20486;-78
2023/05/29 16:27:37;;;;;;;0.90;0.33;;;26.40;1.00;;;;;;4939532;29;20556;-77
2023/05/29 16:30:08;;;;;;;0.70;0.30;;;26.30;1.00;;;;;;4939368;29;20477;-77
2023/05/29 16:32:36;;;;;;;1.30;1.17;;;26.20;1.00;;;;;;4939571;29;20610;-78
2023/05/29 16:35:05;;;;;;;3.63;0.60;;;26.10;1.00;;;;;;4938654;29;20467;-77
2023/05/29 16:37:33;;;;;;;1.67;0.50;;;26.00;1.00;;;;;;4938868;29;20491;-77
2023/05/29 16:40:02;;;;;;;0.70;0.20;;;25.70;1.00;;;;;;4936469;29;21018;-77
2023/05/29 16:42:32;;;;;;;2.20;0.30;;;25.60;1.00;;;;;;4939593;29;20456;-76
2023/05/29 16:45:00;;;;;;;2.03;1.03;;;25.50;1.00;;;;;;4938428;29;20594;-78
2023/05/29 16:47:30;;;;;;;0.70;0.20;;;25.50;1.00;;;;;;4934272;29;20463;-78
2023/05/29 16:49:58;;;;;;;0.77;0.33;;;25.50;1.00;;;;;;4935790;29;20592;-78
2023/05/29 16:52:26;;;;;;;0.90;0.30;;;25.50;1.00;;;;;;4939714;29;20447;-77
2023/05/29 16:54:56;;;;;;;1.20;0.97;;;25.40;1.00;;;;;;4942488;29;20479;-78
2023/05/29 16:57:24;;;;;;;0.70;0.10;;;25.40;1.00;;;;;;4942142;29;20952;-77
2023/05/29 16:59:52;;;;;;;0.70;0.30;;;25.40;1.00;;;;;;4921797;29;20452;-76
2023/05/29 17:02:19;;;;;;;0.70;0.20;;;25.40;1.00;;;;;;4938085;29;20457;-76
2023/05/29 17:04:49;;;;;;;0.93;0.40;;;25.40;1.00;;;;;;4941055;29;20893;-76
2023/05/29 17:07:18;;;;;;;1.10;0.57;;;25.30;1.00;;;;;;4939226;29;20595;-77
2023/05/29 17:09:47;;;;;;;0.70;0.10;;;;;;;;;;4941333;29;21067;-75
2023/05/29 17:12:15;;;;;;;0.70;0.20;;;25.20;1.00;;;;;;4941807;29;20450;-77
2023/05/29 17:14:43;;;;;;;0.70;0.20;;;25.50;1.00;;;;;;4942138;29;21034;-76